Time;durP1;ratioP1;P1;durP2;ratioP2;P2;SDS_P1;SDS_P2;PMS_P1;PMS_P2;Temp;Humidity;BMP_temperature;BMP_pressure;BME280_temperature;BME280_humidity;BME280_pressure;Samples;Min_cycle;Max_cycle;Signal;HPM_P1;HPM_P2
2021/12/07 00:01:12;;;;;;;;;;;;;;;17.80;67.75;99920.19;5016498;28;1458;-68
2021/12/07 00:03:39;;;;;;;;;;;;;;;17.69;68.09;99896.34;5010054;28;1526;-68
2021/12/07 00:06:06;;;;;;;;;;;;;;;17.87;67.94;99918.66;5014568;28;1385;-68
2021/12/07 00:08:33;;;;;;;;;;;;;;;17.83;67.85;99932.47;5016199;28;1462;-68
2021/12/07 00:11:00;;;;;;;;;;;;;;;17.84;67.65;99913.59;5016013;28;1910;-74
2021/12/07 00:13:32;;;;;;;;;;;;;;;17.85;67.63;99920.63;5012766;28;1465;-75
2021/12/07 00:15:59;;;;;;;;;;;;;;;17.82;67.82;99901.34;5015051;28;1417;-67
2021/12/07 00:18:25;;;;;;;;;;;;;;;17.74;67.72;99902.06;5015709;28;1489;-67
2021/12/07 00:20:53;;;;;;;;;;;;;;;17.83;67.64;99895.88;5016525;28;1115;-74
2021/12/07 00:23:20;;;;;;;;;;;;;;;17.74;68.05;99880.69;5016305;28;1710;-74
2021/12/07 00:25:46;;;;;;;;;;;;;;;17.83;67.72;99901.22;5015616;28;1367;-68
2021/12/07 00:28:14;;;;;;;;;;;;;;;17.84;67.66;99905.56;5013655;28;1509;-68
2021/12/07 00:30:41;;;;;;;;;;;;;;;17.83;67.10;99900.38;5016235;28;1915;-68
2021/12/07 00:33:17;;;;;;;;;;;;;;;17.82;67.61;99891.47;5015807;28;1738;-67
2021/12/07 00:35:43;;;;;;;;;;;;;;;17.86;67.77;99905.44;5016302;28;1659;-74
2021/12/07 00:38:12;;;;;;;;;;;;;;;17.79;67.47;99893.63;5014837;28;1473;-68
2021/12/07 00:40:40;;;;;;;;;;;;;;;17.83;67.50;99885.19;5013170;28;1527;-74
2021/12/07 00:43:07;;;;;;;;;;;;;;;17.82;67.68;99888.81;5015178;28;1445;-68
2021/12/07 00:45:35;;;;;;;;;;;;;;;17.79;67.66;99880.25;5015999;28;1614;-74
2021/12/07 00:48:03;;;;;;;;;;;;;;;17.76;67.72;99873.34;5014625;28;1454;-67
2021/12/07 00:50:31;;;;;;;;;;;;;;;17.75;67.86;99873.53;5011401;28;1981;-74
2021/12/07 00:52:57;;;;;;;;;;;;;;;17.76;67.52;99872.53;5015477;28;1361;-67
2021/12/07 00:55:26;;;;;;;;;;;;;;;17.79;67.68;99864.22;5016597;28;1091;-74
2021/12/07 00:57:54;;;;;;;;;;;;;;;17.79;67.70;99866.88;5017204;28;1754;-67
2021/12/07 01:00:22;;;;;;;;;;;;;;;17.70;68.01;99856.06;5016736;28;1658;-74
2021/12/07 01:02:50;;;;;;;;;;;;;;;17.83;67.68;99850.41;5013873;28;1559;-68
2021/12/07 01:05:18;;;;;;;;;;;;;;;17.78;67.81;99866.03;5016782;28;1115;-74
2021/12/07 01:08:11;;;;;;;;;;;;;;;17.79;67.77;99885.59;5014314;28;1510;-75
2021/12/07 01:27:05;;;;;;;;;;;;;;;17.77;67.49;99875.06;5016670;28;1567;-75
2021/12/07 01:29:33;;;;;;;;;;;;;;;17.87;67.26;99853.63;5016716;28;1539;-74
2021/12/07 01:32:10;;;;;;;;;;;;;;;17.83;67.49;99831.69;5015757;28;1902;-68
2021/12/07 01:35:06;;;;;;;;;;;;;;;17.85;67.37;99845.75;5015374;28;1549;-68
2021/12/07 01:37:41;;;;;;;;;;;;;;;17.84;67.38;99849.41;5014044;28;1463;-74
2021/12/07 01:45:59;;;;;;;;;;;;;;;17.84;67.45;99822.66;5007820;28;1503;-67
2021/12/07 01:51:29;;;;;;;;;;;;;;;17.86;67.36;99817.16;5010821;28;1914;-75
2021/12/07 02:02:08;;;;;;;;;;;;;;;17.85;67.41;99813.66;5015549;28;1408;-68
2021/12/07 02:04:35;;;;;;;;;;;;;;;17.76;67.64;99811.84;5015403;28;1706;-68
2021/12/07 02:07:03;;;;;;;;;;;;;;;17.77;67.56;99802.03;5013642;28;1581;-74
2021/12/07 02:09:33;;;;;;;;;;;;;;;17.81;67.44;99796.22;5015742;28;1583;-75
2021/12/07 02:12:01;;;;;;;;;;;;;;;17.79;67.78;99806.22;5015450;28;1910;-74
2021/12/07 02:14:29;;;;;;;;;;;;;;;17.80;67.63;99794.50;5015812;28;1033;-68
2021/12/07 02:16:57;;;;;;;;;;;;;;;17.84;67.30;99795.09;5015208;28;1702;-74
2021/12/07 02:19:24;;;;;;;;;;;;;;;17.86;67.42;99793.94;5008447;28;1474;-68
2021/12/07 02:21:53;;;;;;;;;;;;;;;17.77;67.42;99810.88;5015433;28;1619;-68
2021/12/07 02:24:20;;;;;;;;;;;;;;;17.86;67.33;99799.28;5014642;28;1654;-68
2021/12/07 02:26:47;;;;;;;;;;;;;;;17.76;67.66;99803.81;5016340;28;1034;-67
2021/12/07 02:29:14;;;;;;;;;;;;;;;17.82;67.53;99807.75;5015258;28;1781;-74
2021/12/07 02:31:42;;;;;;;;;;;;;;;17.90;67.24;99799.81;5015601;28;1979;-74
2021/12/07 02:34:09;;;;;;;;;;;;;;;17.86;67.02;99799.28;5013595;28;1528;-68
2021/12/07 02:36:35;;;;;;;;;;;;;;;17.83;67.46;99791.59;5015928;28;1628;-75
2021/12/07 02:39:04;;;;;;;;;;;;;;;17.85;67.46;99786.91;5014763;28;1575;-68
2021/12/07 02:41:31;;;;;;;;;;;;;;;17.82;67.71;99797.03;5015449;28;1420;-68
2021/12/07 02:43:59;;;;;;;;;;;;;;;17.86;67.30;99782.41;5014128;28;1761;-74
2021/12/07 02:46:25;;;;;;;;;;;;;;;17.84;67.53;99790.56;5014978;28;1589;-67
2021/12/07 02:48:52;;;;;;;;;;;;;;;17.98;67.37;99769.66;5014859;28;1754;-68
2021/12/07 02:51:19;;;;;;;;;;;;;;;18.07;66.92;99780.28;5014481;28;1971;-74
2021/12/07 02:53:47;;;;;;;;;;;;;;;17.94;67.23;99757.56;5015172;28;1576;-68
2021/12/07 02:56:15;;;;;;;;;;;;;;;17.93;67.05;99761.25;5015810;28;1031;-74
2021/12/07 02:58:43;;;;;;;;;;;;;;;17.88;67.69;99751.81;5014699;28;1757;-68
2021/12/07 03:01:15;;;;;;;;;;;;;;;17.87;67.61;99768.06;5009952;28;1500;-74
2021/12/07 03:03:52;;;;;;;;;;;;;;;17.95;67.53;99769.97;5012986;28;1564;-68
2021/12/07 03:06:25;;;;;;;;;;;;;;;17.75;67.72;99766.56;5015530;28;1631;-68
2021/12/07 03:28:34;;;;;;;;;;;;;;;17.46;68.11;99771.09;5010759;28;1566;-68
2021/12/07 03:31:01;;;;;;;;;;;;;;;17.48;68.23;99785.13;5016633;28;1997;-75
2021/12/07 03:33:28;;;;;;;;;;;;;;;17.50;67.98;99776.97;5006071;28;1552;-68
2021/12/07 03:35:55;;;;;;;;;;;;;;;17.39;67.50;99761.13;5015404;28;1682;-75
2021/12/07 03:38:21;;;;;;;;;;;;;;;17.51;68.00;99778.69;5015451;28;1650;-68
2021/12/07 03:40:48;;;;;;;;;;;;;;;17.49;68.22;99775.31;5016933;28;1185;-74
2021/12/07 03:43:15;;;;;;;;;;;;;;;17.46;68.25;99768.41;5016579;28;1726;-73
2021/12/07 03:45:43;;;;;;;;;;;;;;;17.49;67.87;99762.78;5016637;28;1710;-68
2021/12/07 03:48:13;;;;;;;;;;;;;;;17.43;68.23;99771.41;5015888;28;1446;-68
2021/12/07 03:50:39;;;;;;;;;;;;;;;17.51;68.34;99773.34;5016137;28;1472;-68
2021/12/07 03:53:06;;;;;;;;;;;;;;;17.49;67.99;99777.97;5015806;28;1960;-74
2021/12/07 03:55:33;;;;;;;;;;;;;;;17.46;68.25;99764.91;5017390;28;1032;-67
2021/12/07 03:58:07;;;;;;;;;;;;;;;17.47;68.16;99778.13;5016068;28;1707;-74
2021/12/07 04:00:36;;;;;;;;;;;;;;;17.48;67.93;99774.44;5007862;28;1571;-69
2021/12/07 04:03:09;;;;;;;;;;;;;;;17.46;68.54;99784.44;5015507;28;1595;-68
2021/12/07 04:05:36;;;;;;;;;;;;;;;17.46;68.34;99772.94;5015632;28;1457;-68
2021/12/07 04:08:03;;;;;;;;;;;;;;;17.49;68.40;99751.25;5014260;28;1546;-68
2021/12/07 04:10:30;;;;;;;;;;;;;;;17.47;68.17;99754.06;5016312;28;1115;-68
2021/12/07 04:12:56;;;;;;;;;;;;;;;17.44;68.25;99724.97;5016136;28;1969;-75
2021/12/07 04:15:23;;;;;;;;;;;;;;;17.46;68.38;99755.06;5014618;28;1504;-67
2021/12/07 04:17:50;;;;;;;;;;;;;;;17.74;67.91;99741.63;5015421;28;1623;-68
2021/12/07 04:20:18;;;;;;;;;;;;;;;18.02;66.98;99742.41;5015640;28;1530;-68
2021/12/07 04:22:45;;;;;;;;;;;;;;;18.04;66.68;99734.25;5014759;28;1541;-68
2021/12/07 04:25:14;;;;;;;;;;;;;;;17.98;67.01;99758.94;5016224;28;966;-75
2021/12/07 04:27:41;;;;;;;;;;;;;;;17.76;67.13;99769.06;5016355;28;1589;-68
2021/12/07 04:30:09;;;;;;;;;;;;;;;17.60;67.88;99758.22;5015601;28;1372;-75
2021/12/07 04:32:36;;;;;;;;;;;;;;;17.54;68.04;99765.00;5015426;28;1878;-68
2021/12/07 04:35:03;;;;;;;;;;;;;;;17.48;68.20;99768.28;5011122;28;1561;-74
2021/12/07 04:37:33;;;;;;;;;;;;;;;17.48;68.20;99776.28;5015506;28;1621;-73
2021/12/07 04:40:01;;;;;;;;;;;;;;;17.41;68.19;99768.03;5016163;28;1706;-74
2021/12/07 04:42:27;;;;;;;;;;;;;;;17.46;68.34;99772.94;5015287;28;1701;-75
2021/12/07 04:44:58;;;;;;;;;;;;;;;17.50;68.08;99772.47;5009636;28;1507;-67
2021/12/07 04:47:34;;;;;;;;;;;;;;;17.47;68.11;99766.59;5013386;28;1595;-75
2021/12/07 04:58:22;;;;;;;;;;;;;;;17.42;68.29;99769.69;5013646;28;1459;-69
2021/12/07 05:00:49;;;;;;;;;;;;;;;17.46;68.27;99791.63;5013786;28;1442;-74
2021/12/07 05:03:16;;;;;;;;;;;;;;;17.49;68.20;99791.34;5014849;28;1568;-68
2021/12/07 05:05:47;;;;;;;;;;;;;;;17.44;68.37;99786.44;5014447;28;1575;-74
2021/12/07 05:08:16;;;;;;;;;;;;;;;17.46;68.35;99781.78;5013197;28;1651;-74
2021/12/07 05:11:12;;;;;;;;;;;;;;;17.46;67.67;99776.44;5012031;28;1063;-74
2021/12/07 05:13:49;;;;;;;;;;;;;;;17.44;68.36;99762.38;5010377;28;1697;-74
2021/12/07 05:16:34;;;;;;;;;;;;;;;17.45;68.24;99764.06;5014365;28;1481;-74
2021/12/07 05:19:16;;;;;;;;;;;;;;;17.44;68.22;99767.72;5014642;28;1423;-74
2021/12/07 05:24:37;;;;;;;;;;;;;;;17.42;68.25;99761.69;4932728;28;1501;-68
2021/12/07 05:37:59;;;;;;;;;;;;;;;17.70;67.68;99750.97;5014271;28;1575;-68
2021/12/07 05:40:26;;;;;;;;;;;;;;;17.56;67.83;99768.34;5012683;28;1507;-74
2021/12/07 05:42:54;;;;;;;;;;;;;;;17.51;68.06;99765.31;5014493;28;1579;-67
2021/12/07 05:45:22;;;;;;;;;;;;;;;17.49;68.47;99754.75;5013936;28;1410;-68
2021/12/07 05:47:49;;;;;;;;;;;;;;;17.49;68.17;99754.75;5014581;28;1515;-74
2021/12/07 05:50:18;;;;;;;;;;;;;;;17.49;68.00;99733.38;5013972;28;1703;-67
2021/12/07 05:52:45;;;;;;;;;;;;;;;17.54;67.95;99745.44;5013505;28;1898;-68
2021/12/07 05:55:19;;;;;;;;;;;;;;;17.54;68.06;99750.78;5010214;28;1462;-74
2021/12/07 05:57:47;;;;;;;;;;;;;;;17.62;67.31;99753.56;5012777;28;1448;-75
2021/12/07 06:00:19;;;;;;;;;;;;;;;17.64;67.70;99756.91;5013218;28;1534;-73
2021/12/07 06:02:45;;;;;;;;;;;;;;;17.62;67.43;99742.84;5010534;28;1485;-68
2021/12/07 06:05:12;;;;;;;;;;;;;;;17.69;67.55;99743.94;5011443;28;1454;-74
2021/12/07 06:07:45;;;;;;;;;;;;;;;17.67;67.45;99751.28;5011983;28;1371;-67
2021/12/07 06:10:11;;;;;;;;;;;;;;;17.68;67.72;99752.94;5013932;28;1146;-75
2021/12/07 06:12:38;;;;;;;;;;;;;;;17.74;67.01;99752.34;5012417;28;1902;-68
2021/12/07 06:15:05;;;;;;;;;;;;;;;17.72;67.26;99743.63;5011561;28;1505;-75
2021/12/07 06:17:33;;;;;;;;;;;;;;;17.98;66.48;99732.19;5012682;28;1512;-67
2021/12/07 06:19:59;;;;;;;;;;;;;;;18.45;64.83;99739.94;5012441;28;1063;-69
2021/12/07 06:22:26;;;;;;;;;;;;;;;18.53;64.83;99747.19;5012060;28;1485;-76
2021/12/07 06:24:52;;;;;;;;;;;;;;;18.42;64.62;99734.88;5012466;28;1465;-75
2021/12/07 06:27:19;;;;;;;;;;;;;;;18.35;65.00;99732.00;5010381;28;1474;-69
2021/12/07 06:29:45;;;;;;;;;;;;;;;18.28;66.13;99750.53;5012942;28;1434;-71
2021/12/07 06:32:13;;;;;;;;;;;;;;;18.20;65.88;99738.91;5014122;28;1907;-68
2021/12/07 06:34:41;;;;;;;;;;;;;;;18.14;66.08;99726.97;5011642;28;1470;-76
2021/12/07 06:37:07;;;;;;;;;;;;;;;18.26;65.98;99736.47;5011725;28;1555;-67
2021/12/07 06:39:35;;;;;;;;;;;;;;;18.17;65.96;99737.38;5010954;28;1801;-67
2021/12/07 06:42:02;;;;;;;;;;;;;;;18.06;66.27;99764.38;5018668;28;1654;-77
2021/12/07 06:44:28;;;;;;;;;;;;;;;18.04;66.60;99743.09;5017184;28;1065;-77
2021/12/07 06:46:55;;;;;;;;;;;;;;;18.05;66.26;99735.94;5016220;28;1674;-67
2021/12/07 06:49:22;;;;;;;;;;;;;;;17.87;66.94;99734.13;5015927;28;1504;-77
2021/12/07 06:51:51;;;;;;;;;;;;;;;17.89;66.60;99744.66;5015689;28;1918;-77
2021/12/07 06:54:18;;;;;;;;;;;;;;;17.85;67.00;99767.38;5016590;28;1595;-78
2021/12/07 06:56:45;;;;;;;;;;;;;;;17.78;67.06;99742.19;5017489;28;1480;-78
2021/12/07 06:59:12;;;;;;;;;;;;;;;17.86;67.17;99740.44;5015841;28;1733;-68
2021/12/07 07:01:38;;;;;;;;;;;;;;;17.82;66.80;99736.38;5015690;28;1603;-68
2021/12/07 07:04:07;;;;;;;;;;;;;;;17.87;67.11;99746.66;5016281;28;1598;-77
2021/12/07 07:06:40;;;;;;;;;;;;;;;17.93;67.14;99734.50;5015397;28;1442;-67
2021/12/07 07:09:09;;;;;;;;;;;;;;;17.97;66.70;99720.66;5017557;28;1599;-74
2021/12/07 07:11:36;;;;;;;;;;;;;;;18.02;66.69;99717.50;5018389;28;950;-68
2021/12/07 07:14:03;;;;;;;;;;;;;;;18.06;66.40;99721.56;5013154;28;1883;-74
2021/12/07 07:16:30;;;;;;;;;;;;;;;18.07;66.85;99718.75;5016949;28;1528;-76
2021/12/07 07:18:57;;;;;;;;;;;;;;;18.08;66.47;99732.94;5016074;28;1642;-76
2021/12/07 07:21:24;;;;;;;;;;;;;;;18.04;66.95;99736.94;5014934;28;1590;-75
2021/12/07 07:23:51;;;;;;;;;;;;;;;18.15;66.63;99722.50;5015490;28;1462;-68
2021/12/07 07:26:20;;;;;;;;;;;;;;;18.19;66.52;99727.38;5014507;28;1364;-72
2021/12/07 07:28:47;;;;;;;;;;;;;;;18.24;65.94;99722.41;5015135;28;1442;-68
2021/12/07 07:31:18;;;;;;;;;;;;;;;18.19;66.53;99723.84;5018322;28;1465;-66
2021/12/07 07:33:45;;;;;;;;;;;;;;;18.16;66.18;99735.69;5011897;28;1969;-69
2021/12/07 07:36:11;;;;;;;;;;;;;;;18.22;65.91;99727.06;5014495;28;1685;-72
2021/12/07 07:38:40;;;;;;;;;;;;;;;18.05;66.89;99727.91;5014253;28;1725;-71
2021/12/07 07:41:07;;;;;;;;;;;;;;;18.03;67.16;99728.06;5013396;28;1507;-67
2021/12/07 07:43:35;;;;;;;;;;;;;;;18.08;67.08;99722.25;5011977;28;1677;-64
2021/12/07 07:46:01;;;;;;;;;;;;;;;17.81;65.83;99732.03;5012512;28;1480;-64
2021/12/07 07:48:28;;;;;;;;;;;;;;;17.69;66.24;99719.88;5015420;28;1515;-75
2021/12/07 07:50:55;;;;;;;;;;;;;;;17.69;66.08;99734.09;5014215;28;1686;-65
2021/12/07 07:53:22;;;;;;;;;;;;;;;17.82;66.42;99747.06;5015364;28;1902;-65
2021/12/07 07:55:49;;;;;;;;;;;;;;;18.03;65.19;99743.28;5012884;28;1569;-66
2021/12/07 07:58:16;;;;;;;;;;;;;;;17.96;65.85;99750.25;5006278;28;1740;-68
2021/12/07 08:00:44;;;;;;;;;;;;;;;17.97;65.93;99751.94;5014665;28;1677;-66
2021/12/07 08:03:11;;;;;;;;;;;;;;;17.94;65.86;99787.81;5010820;28;1693;-65
2021/12/07 08:05:38;;;;;;;;;;;;;;;17.97;66.44;99757.28;5013225;28;1511;-66
2021/12/07 08:08:04;;;;;;;;;;;;;;;17.98;65.71;99766.97;5009872;28;1618;-64
2021/12/07 08:10:31;;;;;;;;;;;;;;;18.02;65.57;99768.34;5013366;28;1367;-68
2021/12/07 08:12:58;;;;;;;;;;;;;;;18.00;65.95;99751.59;5014319;28;1898;-69
2021/12/07 08:15:25;;;;;;;;;;;;;;;17.97;66.30;99730.53;5014731;28;1643;-66
2021/12/07 08:17:54;;;;;;;;;;;;;;;17.93;66.18;99724.66;5014567;28;1485;-66
2021/12/07 08:20:20;;;;;;;;;;;;;;;17.93;66.23;99726.50;5010786;28;1490;-65
2021/12/07 08:22:48;;;;;;;;;;;;;;;17.92;65.96;99748.88;5014732;28;1600;-67
2021/12/07 08:25:15;;;;;;;;;;;;;;;18.00;65.79;99735.56;5015937;28;971;-70
2021/12/07 08:27:42;;;;;;;;;;;;;;;17.93;65.81;99707.75;5014765;28;1536;-66
2021/12/07 08:30:10;;;;;;;;;;;;;;;17.89;66.44;99702.72;5014660;28;1650;-68
2021/12/07 08:32:39;;;;;;;;;;;;;;;17.86;66.14;99686.97;5014863;28;2062;-68
2021/12/07 08:35:07;;;;;;;;;;;;;;;17.89;65.85;99667.94;5013286;28;1616;-66
2021/12/07 08:37:33;;;;;;;;;;;;;;;17.93;66.21;99694.38;5014888;28;1000;-65
2021/12/07 08:40:00;;;;;;;;;;;;;;;17.92;66.14;99684.66;5013985;28;1574;-66
2021/12/07 08:42:27;;;;;;;;;;;;;;;17.93;66.24;99692.56;5014950;28;1722;-68
2021/12/07 08:44:53;;;;;;;;;;;;;;;17.92;65.96;99685.50;5014438;28;1517;-68
2021/12/07 08:47:20;;;;;;;;;;;;;;;17.96;65.94;99686.03;5014975;28;1087;-68
2021/12/07 08:49:46;;;;;;;;;;;;;;;17.94;65.86;99664.78;5014819;28;1005;-66
2021/12/07 08:52:14;;;;;;;;;;;;;;;17.94;65.98;99669.31;5014388;28;1963;-66
2021/12/07 09:00:07;;;;;;;;;;;;;;;17.96;65.32;99689.53;5010885;28;1630;-68
2021/12/07 09:02:34;;;;;;;;;;;;;;;18.04;65.35;99678.06;5013908;28;1594;-69
2021/12/07 09:05:01;;;;;;;;;;;;;;;18.03;65.49;99692.47;5014964;28;1016;-66
2021/12/07 09:07:28;;;;;;;;;;;;;;;18.01;65.46;99689.94;5013009;28;1239;-68
2021/12/07 09:09:55;;;;;;;;;;;;;;;17.95;65.66;99673.69;5013950;28;1754;-66
2021/12/07 09:12:22;;;;;;;;;;;;;;;17.96;65.65;99675.34;5014060;28;1903;-67
2021/12/07 09:14:52;;;;;;;;;;;;;;;18.00;65.65;99674.88;5013966;28;1603;-66
2021/12/07 09:17:18;;;;;;;;;;;;;;;17.95;65.93;99658.47;5014444;28;1012;-66
2021/12/07 09:19:46;;;;;;;;;;;;;;;17.94;66.31;99666.63;5013787;28;1695;-68
2021/12/07 09:22:12;;;;;;;;;;;;;;;17.94;66.20;99650.59;5013631;28;1598;-69
2021/12/07 09:24:40;;;;;;;;;;;;;;;17.91;65.98;99649.06;5013726;28;1395;-66
2021/12/07 09:27:07;;;;;;;;;;;;;;;17.98;65.60;99654.63;5013963;28;1564;-69
2021/12/07 09:29:34;;;;;;;;;;;;;;;17.93;66.00;99654.28;5014397;28;1055;-68
2021/12/07 09:32:01;;;;;;;;;;;;;;;17.97;65.84;99659.16;5013352;28;1722;-68
2021/12/07 09:34:27;;;;;;;;;;;;;;;17.91;66.01;99650.91;5013519;28;2064;-66
2021/12/07 09:36:54;;;;;;;;;;;;;;;17.89;66.04;99646.53;5009138;28;1506;-66
2021/12/07 09:39:21;;;;;;;;;;;;;;;17.94;65.92;99651.41;5013296;28;1399;-67
2021/12/07 09:41:49;;;;;;;;;;;;;;;17.95;65.86;99658.47;5014206;28;1044;-68
2021/12/07 09:44:15;;;;;;;;;;;;;;;17.96;65.71;99660.13;5013497;28;1815;-66
2021/12/07 09:46:42;;;;;;;;;;;;;;;17.94;65.85;99650.59;5013741;28;1619;-68
2021/12/07 09:49:10;;;;;;;;;;;;;;;17.92;66.18;99676.66;5012929;28;1552;-66
2021/12/07 09:51:38;;;;;;;;;;;;;;;17.97;65.93;99677.03;5012963;28;1564;-68
2021/12/07 09:54:06;;;;;;;;;;;;;;;18.03;65.51;99681.75;5013052;28;1902;-69
2021/12/07 09:56:32;;;;;;;;;;;;;;;17.95;65.67;99665.66;5014335;28;1028;-69
2021/12/07 09:59:01;;;;;;;;;;;;;;;17.97;65.57;99667.16;5012841;28;1786;-66
2021/12/07 10:01:28;;;;;;;;;;;;;;;17.96;65.87;99673.50;5013479;28;1544;-67
2021/12/07 10:03:55;;;;;;;;;;;;;;;17.98;65.82;99663.47;5013209;28;1489;-66
2021/12/07 10:06:29;;;;;;;;;;;;;;;17.99;64.96;99648.28;5012727;28;1512;-66
2021/12/07 10:08:55;;;;;;;;;;;;;;;18.02;65.38;99643.44;5011524;28;1466;-66
2021/12/07 10:11:22;;;;;;;;;;;;;;;17.96;66.00;99649.41;5014010;28;978;-67
2021/12/07 10:13:50;;;;;;;;;;;;;;;17.96;65.65;99646.75;5012278;28;1906;-68
2021/12/07 10:16:19;;;;;;;;;;;;;;;17.97;65.41;99640.41;5012577;28;1564;-66
2021/12/07 10:18:46;;;;;;;;;;;;;;;17.97;65.84;99634.25;5012799;28;1590;-70
2021/12/07 10:21:14;;;;;;;;;;;;;;;17.95;65.42;99629.03;5012869;28;1744;-69
2021/12/07 10:23:42;;;;;;;;;;;;;;;17.96;65.56;99627.19;5013249;28;1587;-68
2021/12/07 10:26:10;;;;;;;;;;;;;;;18.01;65.63;99616.88;5013650;28;1058;-68
2021/12/07 10:28:38;;;;;;;;;;;;;;;17.99;65.50;99629.56;5013187;28;1726;-67
2021/12/07 10:31:15;;;;;;;;;;;;;;;17.99;65.70;99626.91;5012947;28;1622;-66
2021/12/07 10:33:45;;;;;;;;;;;;;;;17.98;65.55;99611.81;5012426;28;1906;-66
2021/12/07 10:36:14;;;;;;;;;;;;;;;17.97;65.47;99612.84;5012363;28;1579;-69
2021/12/07 10:38:41;;;;;;;;;;;;;;;17.98;65.54;99601.13;5013074;28;1659;-66
2021/12/07 10:41:09;;;;;;;;;;;;;;;17.96;65.51;99605.78;5013258;28;1096;-69
2021/12/07 10:43:49;;;;;;;;;;;;;;;17.90;65.71;99625.97;5012454;28;1753;-66
2021/12/07 10:46:29;;;;;;;;;;;;;;;17.93;65.74;99611.47;5012814;28;1723;-66
2021/12/07 10:49:09;;;;;;;;;;;;;;;17.95;65.56;99615.66;5011723;28;1713;-69
2021/12/07 10:51:36;;;;;;;;;;;;;;;17.95;65.04;99615.66;5012582;28;1474;-66
2021/12/07 10:54:02;;;;;;;;;;;;;;;17.96;65.62;99611.16;5012189;28;2003;-69
2021/12/07 10:56:29;;;;;;;;;;;;;;;17.91;65.76;99597.44;5013570;28;1067;-68
2021/12/07 10:59:00;;;;;;;;;;;;;;;17.92;65.73;99609.78;5012622;28;1726;-66
2021/12/07 11:01:33;;;;;;;;;;;;;;;17.95;65.34;99606.81;5012694;28;1634;-66
2021/12/07 11:04:14;;;;;;;;;;;;;;;17.93;65.57;99606.97;5012088;28;1568;-69
2021/12/07 11:06:56;;;;;;;;;;;;;;;18.02;65.00;99615.88;5011965;28;1662;-69
2021/12/07 11:09:24;;;;;;;;;;;;;;;17.97;65.62;99604.81;5011539;28;1544;-66
2021/12/07 11:12:05;;;;;;;;;;;;;;;17.99;64.93;99589.44;5013520;28;1308;-67
2021/12/07 11:14:38;;;;;;;;;;;;;;;17.98;65.04;99587.75;5012614;28;1977;-66
2021/12/07 11:17:05;;;;;;;;;;;;;;;18.01;65.37;99592.81;5012551;28;1446;-69
2021/12/07 11:19:32;;;;;;;;;;;;;;;18.02;65.41;99591.78;5012133;28;1710;-66
2021/12/07 11:21:59;;;;;;;;;;;;;;;17.98;65.32;99587.75;5012655;28;1769;-69
2021/12/07 11:24:35;;;;;;;;;;;;;;;18.01;65.23;99603.50;5012529;28;1563;-68
2021/12/07 11:29:57;;;;;;;;;;;;;;;17.99;65.22;99582.25;5014589;28;1461;-66
2021/12/07 11:32:23;;;;;;;;;;;;;;;18.01;65.25;99577.59;5014035;28;1474;-65
2021/12/07 11:34:50;;;;;;;;;;;;;;;17.97;65.24;99578.91;5016262;28;1987;-67
2021/12/07 11:37:17;;;;;;;;;;;;;;;17.92;65.76;99581.19;5015912;28;1501;-66
2021/12/07 11:39:48;;;;;;;;;;;;;;;17.95;65.44;99562.16;5015600;28;1564;-66
2021/12/07 11:42:17;;;;;;;;;;;;;;;17.92;65.24;99559.78;4997908;28;1505;-66
2021/12/07 11:44:47;;;;;;;;;;;;;;;17.92;65.38;99573.16;5014064;28;1527;-68
2021/12/07 11:47:13;;;;;;;;;;;;;;;17.92;65.49;99567.81;5015548;28;1062;-69
2021/12/07 11:49:40;;;;;;;;;;;;;;;17.93;65.29;99569.50;5015335;28;1738;-66
2021/12/07 11:52:08;;;;;;;;;;;;;;;17.97;65.28;99570.03;5015225;28;1717;-66
2021/12/07 11:54:36;;;;;;;;;;;;;;;17.94;65.44;99575.69;5011403;28;1981;-66
2021/12/07 11:57:06;;;;;;;;;;;;;;;17.97;65.41;99562.84;5015891;28;1587;-69
2021/12/07 11:59:32;;;;;;;;;;;;;;;17.97;65.17;99570.03;5015748;28;1255;-68
2021/12/07 12:01:59;;;;;;;;;;;;;;;17.95;65.45;99566.69;5014989;28;1710;-66
2021/12/07 12:04:26;;;;;;;;;;;;;;;17.94;65.33;99571.19;5015132;28;1591;-68
2021/12/07 12:06:53;;;;;;;;;;;;;;;17.97;65.37;99578.91;5014999;28;1610;-67
2021/12/07 12:09:21;;;;;;;;;;;;;;;17.99;65.33;99571.56;5013878;28;1626;-67
2021/12/07 12:11:52;;;;;;;;;;;;;;;17.73;64.98;99531.41;5015906;28;1631;-66
2021/12/07 12:14:31;;;;;;;;;;;;;;;17.98;65.19;99577.06;5015161;28;1966;-68
2021/12/07 12:17:04;;;;;;;;;;;;;;;17.98;65.50;99580.56;5015225;28;1730;-66
2021/12/07 12:19:32;;;;;;;;;;;;;;;17.99;65.02;99568.06;5014299;28;1821;-66
2021/12/07 12:22:01;;;;;;;;;;;;;;;17.99;65.03;99568.88;5015405;28;1536;-66
2021/12/07 12:24:32;;;;;;;;;;;;;;;18.02;65.42;99570.38;5014357;28;1450;-66
2021/12/07 12:27:06;;;;;;;;;;;;;;;17.97;65.11;99560.19;5015700;28;1008;-69
2021/12/07 12:29:36;;;;;;;;;;;;;;;17.98;65.27;99572.53;5016332;28;1038;-69
2021/12/07 12:32:03;;;;;;;;;;;;;;;17.99;65.08;99573.41;5016063;28;1599;-68
2021/12/07 12:34:31;;;;;;;;;;;;;;;17.97;65.31;99562.03;5015407;28;1907;-66
2021/12/07 12:37:00;;;;;;;;;;;;;;;17.96;65.22;99579.88;5015025;28;1603;-69
2021/12/07 12:39:44;;;;;;;;;;;;;;;18.00;65.23;99589.25;5015323;28;1567;-66
2021/12/07 12:42:11;;;;;;;;;;;;;;;17.99;65.10;99570.72;5015313;28;1513;-65
2021/12/07 12:44:39;;;;;;;;;;;;;;;17.94;65.28;99575.69;5016382;28;1077;-69
2021/12/07 12:47:06;;;;;;;;;;;;;;;17.97;65.17;99580.75;5015028;28;1745;-68
2021/12/07 12:49:39;;;;;;;;;;;;;;;17.96;65.35;99568.34;5015238;28;1773;-66
2021/12/07 12:52:06;;;;;;;;;;;;;;;17.94;65.33;99586.41;5015169;28;1628;-68
2021/12/07 12:54:40;;;;;;;;;;;;;;;17.95;65.22;99594.25;5015162;28;1979;-65
2021/12/07 12:57:11;;;;;;;;;;;;;;;17.99;65.54;99592.13;5014833;28;1579;-66
2021/12/07 12:59:41;;;;;;;;;;;;;;;17.99;65.58;99594.81;5016417;28;1089;-66
2021/12/07 13:02:07;;;;;;;;;;;;;;;17.94;65.71;99600.59;5015292;28;1424;-69
2021/12/07 13:04:34;;;;;;;;;;;;;;;17.95;65.43;99599.63;5014344;28;1584;-66
2021/12/07 13:07:23;;;;;;;;;;;;;;;17.99;64.95;99597.47;5014892;28;1520;-66
2021/12/07 13:09:49;;;;;;;;;;;;;;;17.94;65.28;99589.06;4995211;28;1702;-66
2021/12/07 13:12:17;;;;;;;;;;;;;;;17.96;65.44;99589.75;4995469;28;1769;-66
2021/12/07 13:14:53;;;;;;;;;;;;;;;17.97;65.48;99591.44;4993549;28;1977;-68
2021/12/07 13:17:23;;;;;;;;;;;;;;;18.00;65.22;99599.13;4993457;28;1092;-68
2021/12/07 13:20:07;;;;;;;;;;;;;;;17.99;65.55;99600.16;4996001;28;1032;-65
2021/12/07 13:22:35;;;;;;;;;;;;;;;18.02;65.14;99602.50;4995723;28;1262;-66
2021/12/07 13:25:05;;;;;;;;;;;;;;;18.02;65.24;99607.84;4994545;28;1776;-69
2021/12/07 13:27:31;;;;;;;;;;;;;;;18.01;65.01;99590.97;4995391;28;1737;-66
2021/12/07 13:33:12;;;;;;;;;;;;;;;18.00;65.36;99602.63;4986507;28;1590;-66
2021/12/07 13:35:38;;;;;;;;;;;;;;;17.97;65.38;99605.66;4993961;28;1914;-65
2021/12/07 13:38:14;;;;;;;;;;;;;;;17.99;65.34;99605.50;4994520;28;1774;-69
2021/12/07 13:40:41;;;;;;;;;;;;;;;18.00;65.03;99591.09;4996036;28;996;-69
2021/12/07 13:43:07;;;;;;;;;;;;;;;17.99;65.10;99613.53;4993255;28;1383;-66
2021/12/07 13:45:34;;;;;;;;;;;;;;;17.95;65.26;99625.53;4994442;28;1575;-66
2021/12/07 13:48:03;;;;;;;;;;;;;;;17.95;64.88;99599.63;4992552;28;1564;-69
2021/12/07 13:50:32;;;;;;;;;;;;;;;17.94;64.71;99608.63;4994470;28;1513;-66
2021/12/07 13:52:59;;;;;;;;;;;;;;;17.99;64.92;99629.56;4995063;28;1521;-67
2021/12/07 13:55:29;;;;;;;;;;;;;;;17.93;65.33;99622.19;4993642;28;1898;-66
2021/12/07 13:57:57;;;;;;;;;;;;;;;17.98;65.27;99619.84;4995600;28;1485;-66
2021/12/07 14:00:25;;;;;;;;;;;;;;;17.98;65.04;99626.03;4994935;28;1470;-66
2021/12/07 14:02:55;;;;;;;;;;;;;;;17.98;64.87;99626.03;4995252;28;1513;-66
2021/12/07 14:05:23;;;;;;;;;;;;;;;17.93;64.99;99609.63;4990762;28;1402;-66
2021/12/07 14:07:52;;;;;;;;;;;;;;;17.96;65.11;99622.69;4999471;28;1469;-66
2021/12/07 14:10:21;;;;;;;;;;;;;;;18.03;65.24;99625.59;5015448;28;1011;-66
2021/12/07 14:12:49;;;;;;;;;;;;;;;18.00;64.84;99623.22;5014746;28;1591;-68
2021/12/07 14:15:18;;;;;;;;;;;;;;;17.96;64.98;99622.69;5014643;28;1975;-68
2021/12/07 14:17:47;;;;;;;;;;;;;;;17.94;64.93;99607.78;5014527;28;1567;-69
2021/12/07 14:20:13;;;;;;;;;;;;;;;17.98;64.89;99619.84;5014561;28;1461;-66
2021/12/07 14:22:45;;;;;;;;;;;;;;;18.03;65.19;99623.75;5015232;28;1267;-67
2021/12/07 14:25:17;;;;;;;;;;;;;;;18.00;65.18;99624.03;5015122;28;1220;-68
2021/12/07 14:27:44;;;;;;;;;;;;;;;18.01;64.85;99614.19;5014348;28;1505;-69
2021/12/07 14:30:12;;;;;;;;;;;;;;;17.98;64.89;99634.06;5014431;28;1492;-67
2021/12/07 14:32:46;;;;;;;;;;;;;;;18.00;64.91;99610.66;5014140;28;1458;-69